Time;durP1;ratioP1;P1;durP2;ratioP2;P2;SDS_P1;SDS_P2;PMS_P1;PMS_P2;Temp;Humidity;BMP_temperature;BMP_pressure;BME280_temperature;BME280_humidity;BME280_pressure;Samples;Min_cycle;Max_cycle;Signal;HPM_P1;HPM_P2
2021/05/10 00:00:38;;;;;;;3.97;2.80;;;;;;;17.18;63.30;98942.34;5132821;28;20039;-95
2021/05/10 00:03:04;;;;;;;4.95;3.38;;;;;;;17.21;63.84;98944.84;5133562;27;20130;-94
2021/05/10 00:05:30;;;;;;;6.05;3.28;;;;;;;17.16;62.32;98923.59;5133776;27;20389;-94
2021/05/10 00:07:56;;;;;;;5.18;3.10;;;;;;;17.18;62.96;98928.91;5133504;27;20036;-94
2021/05/10 00:10:22;;;;;;;5.07;3.08;;;;;;;17.32;62.85;98953.22;5134178;28;20054;-94
2021/05/10 00:12:49;;;;;;;5.18;3.45;;;;;;;17.26;62.22;98942.78;5133848;28;20557;-95
2021/05/10 00:15:16;;;;;;;4.65;2.90;;;;;;;17.22;61.91;98930.50;5132050;28;20046;-93
2021/05/10 00:17:42;;;;;;;4.15;3.17;;;;;;;17.24;62.29;98947.41;5133310;27;20062;-95
2021/05/10 00:20:09;;;;;;;4.25;3.00;;;;;;;17.18;62.80;98943.19;5133704;27;20046;-93
2021/05/10 00:22:35;;;;;;;4.80;2.92;;;;;;;17.18;62.39;98953.09;5133526;27;20122;-94
2021/05/10 00:25:00;;;;;;;5.05;3.03;;;;;;;17.15;62.46;98942.47;5132729;27;20066;-95
2021/05/10 00:27:26;;;;;;;5.63;3.00;;;;;;;17.02;62.74;98932.38;5132819;28;20048;-95
2021/05/10 00:29:53;;;;;;;6.65;3.15;;;;;;;17.10;63.45;98939.16;5132262;27;20039;-94
2021/05/10 00:32:19;;;;;;;4.22;3.20;;;;;;;17.02;64.05;98950.28;5121654;28;20173;-94
2021/05/10 00:34:45;;;;;;;4.55;3.33;;;;;;;16.87;64.85;98949.25;5118087;28;20544;-94
2021/05/10 00:37:11;;;;;;;4.80;3.10;;;;;;;16.76;65.02;98947.09;5118940;28;20423;-94
2021/05/10 00:39:36;;;;;;;4.35;3.38;;;;;;;16.63;65.54;98949.50;5118635;27;20541;-94
2021/05/10 00:42:02;;;;;;;7.13;3.35;;;;;;;16.39;66.11;98932.78;5118221;28;20089;-96
2021/05/10 00:44:28;;;;;;;5.35;3.33;;;;;;;16.34;66.64;98933.94;5121396;27;20119;-95
2021/05/10 00:46:55;;;;;;;6.13;3.60;;;;;;;16.21;66.98;98934.50;5118943;28;20130;-93
2021/05/10 00:49:21;;;;;;;4.18;3.22;;;;;;;16.14;67.47;98946.47;5119139;28;20044;-94
2021/05/10 00:51:47;;;;;;;6.10;3.30;;;;;;;16.07;67.90;98939.66;5119309;28;20043;-95
2021/05/10 00:54:13;;;;;;;6.22;3.90;;;;;;;15.93;68.57;98940.28;5118728;27;20050;-95
2021/05/10 00:56:39;;;;;;;5.30;3.28;;;;;;;16.06;68.60;98956.69;5121582;27;20489;-93
2021/05/10 00:59:05;;;;;;;4.93;3.25;;;;;;;16.08;69.05;98964.66;5117909;28;20518;-94
2021/05/10 01:01:31;;;;;;;5.28;3.65;;;;;;;16.05;68.65;98957.66;5117572;28;20036;-95
2021/05/10 01:03:58;;;;;;;4.72;3.67;;;;;;;15.90;69.29;98935.09;5118636;28;20119;-93
2021/05/10 01:06:24;;;;;;;4.93;3.60;;;;;;;15.93;69.82;98950.16;5118380;28;20043;-95
2021/05/10 01:08:51;;;;;;;4.78;3.80;;;;;;;15.89;69.92;98946.72;5120085;27;20035;-93
2021/05/10 01:11:17;;;;;;;4.75;3.90;;;;;;;15.77;70.62;98953.53;5119400;27;20075;-94
2021/05/10 01:13:43;;;;;;;6.40;4.13;;;;;;;15.64;70.36;98935.38;5118492;28;20040;-93
2021/05/10 01:16:10;;;;;;;7.18;4.00;;;;;;;15.70;70.83;98956.50;5117362;28;20036;-94
2021/05/10 01:18:36;;;;;;;4.20;3.50;;;;;;;15.51;71.59;98943.09;5120732;27;20484;-90
2021/05/10 01:21:03;;;;;;;6.78;4.00;;;;;;;15.36;71.64;98934.78;5118905;27;20081;-92
2021/05/10 01:23:30;;;;;;;5.93;4.10;;;;;;;15.50;71.77;98963.63;5118143;28;20040;-94
2021/05/10 01:25:57;;;;;;;5.97;4.00;;;;;;;15.30;71.96;98942.22;5118447;28;20122;-95
2021/05/10 01:28:23;;;;;;;6.78;4.00;;;;;;;15.40;71.91;98951.59;5117937;27;20050;-93
2021/05/10 01:30:50;;;;;;;7.05;4.10;;;;;;;15.16;72.59;98935.66;5116926;28;20031;-95
2021/05/10 01:33:17;;;;;;;9.25;4.40;;;;;;;15.08;72.68;98939.59;5107007;28;20093;-93
2021/05/10 01:35:46;;;;;;;5.13;3.83;;;;;;;15.10;73.24;98951.13;5117519;28;20126;-94
2021/05/10 01:38:13;;;;;;;6.75;4.30;;;;;;;15.02;73.25;98945.22;5120954;27;20074;-95
2021/05/10 01:40:40;;;;;;;6.13;4.30;;;;;;;14.95;73.95;98968.69;5117240;28;20043;-96
2021/05/10 01:43:06;;;;;;;6.22;4.10;;;;;;;14.92;74.30;98983.09;5116715;28;20058;-93
2021/05/10 01:45:32;;;;;;;6.00;3.85;;;;;;;14.61;74.73;98942.44;5125244;27;20131;-94
2021/05/10 01:48:01;;;;;;;6.25;4.15;;;;;;;14.71;74.98;98984.84;5118924;27;20036;-94
2021/05/10 01:50:27;;;;;;;6.18;4.47;;;;;;;14.60;75.61;98976.38;5117337;28;20388;-95
2021/05/10 01:52:54;;;;;;;5.63;4.13;;;;;;;14.43;75.36;98950.25;5117873;27;20051;-95
2021/05/10 01:55:22;;;;;;;7.20;4.30;;;;;;;14.39;75.49;98945.94;5128606;27;20119;-96
2021/05/10 01:57:50;;;;;;;8.30;4.38;;;;;;;14.43;75.00;98944.03;5117812;28;20066;-95
2021/05/10 02:00:20;;;;;;;7.15;4.03;;;;;;;14.67;73.29;98961.78;5116108;28;20065;-94
2021/05/10 02:02:46;;;;;;;7.88;4.13;;;;;;;14.63;73.16;98943.25;5117234;28;20096;-94
2021/05/10 02:05:15;;;;;;;6.57;4.03;;;;;;;14.88;71.36;98975.25;5117259;28;20035;-94
2021/05/10 02:07:44;;;;;;;4.90;3.63;;;;;;;14.94;70.42;98969.63;5118105;28;20047;-94
2021/05/10 02:10:13;;;;;;;5.57;4.00;;;;;;;14.86;69.69;98948.53;5117276;28;20485;-94
2021/05/10 02:12:39;;;;;;;;;;;;;;;15.09;69.33;98981.50;5118137;28;20093;-93
2021/05/10 02:15:10;;;;;;;5.00;3.53;;;;;;;14.99;69.26;98946.22;5111589;28;19923;-94
2021/05/10 02:17:36;;;;;;;7.18;3.40;;;;;;;15.04;69.34;98975.47;5117067;28;20047;-94
2021/05/10 02:20:06;;;;;;;5.57;3.45;;;;;;;15.08;68.59;98961.88;5117031;28;20196;-93
2021/05/10 02:22:32;;;;;;;5.72;3.50;;;;;;;15.12;68.62;98957.28;5115942;28;20038;-93
2021/05/10 02:24:58;;;;;;;5.93;3.40;;;;;;;15.09;68.67;98960.06;5117310;28;20071;-94
2021/05/10 02:27:24;;;;;;;5.35;3.55;;;;;;;15.13;68.83;98967.03;5118380;28;20042;-94
2021/05/10 02:29:50;;;;;;;5.45;3.45;;;;;;;14.97;69.15;98942.72;5117107;28;20444;-92
2021/05/10 02:32:17;;;;;;;6.65;3.90;;;;;;;15.02;69.49;98974.66;5116488;28;20093;-93
2021/05/10 02:34:43;;;;;;;5.80;3.70;;;;;;;14.79;69.91;98947.91;5117777;28;20162;-95
2021/05/10 02:37:09;;;;;;;6.93;4.10;;;;;;;14.70;70.38;98942.94;5117663;28;20493;-95
2021/05/10 02:39:35;;;;;;;5.53;4.35;;;;;;;14.65;70.45;98952.09;5117380;28;20070;-94
2021/05/10 02:42:00;;;;;;;6.95;3.92;;;;;;;14.68;70.74;98968.00;5116736;28;20039;-94
2021/05/10 02:44:26;;;;;;;4.90;4.00;;;;;;;14.68;70.68;98957.31;5118486;28;20116;-94
2021/05/10 02:46:52;;;;;;;7.28;4.05;;;;;;;14.58;70.96;98948.78;5110046;28;20516;-93
2021/05/10 02:49:19;;;;;;;6.93;4.20;;;;;;;14.53;71.12;98945.38;5130879;27;20043;-92
2021/05/10 02:51:46;;;;;;;6.45;4.45;;;;;;;14.49;71.38;98944.66;5125001;27;20043;-94
2021/05/10 02:54:12;;;;;;;6.65;4.20;;;;;;;14.43;71.76;98952.06;5126209;27;20098;-93
2021/05/10 02:56:37;;;;;;;6.63;4.18;;;;;;;14.47;71.89;98975.94;5117993;28;20075;-93
2021/05/10 02:59:03;;;;;;;6.95;4.45;;;;;;;14.46;72.44;98982.22;5117465;28;20044;-95
2021/05/10 03:01:29;;;;;;;5.72;4.43;;;;;;;14.36;72.51;98975.50;5122719;27;20099;-94
2021/05/10 03:03:55;;;;;;;5.65;4.53;;;;;;;14.32;72.60;98976.56;5117184;28;20036;-94
2021/05/10 03:06:22;;;;;;;6.70;5.05;;;;;;;14.21;72.99;98968.09;5117643;27;20116;-91
2021/05/10 03:08:48;;;;;;;6.15;4.97;;;;;;;14.16;73.50;98971.81;5117399;28;20032;-92
2021/05/10 03:11:14;;;;;;;9.65;6.22;;;;;;;14.13;74.48;98982.59;5117400;28;20050;-94
2021/05/10 03:13:40;;;;;;;8.73;6.32;;;;;;;14.19;75.03;99008.25;5118094;28;20074;-94
2021/05/10 03:16:06;;;;;;;8.98;6.05;;;;;;;14.12;74.99;98991.56;5118675;28;20631;-94
2021/05/10 03:18:32;;;;;;;9.00;6.50;;;;;;;14.03;75.39;98975.88;5120823;28;20031;-93
2021/05/10 03:20:57;;;;;;;8.73;6.70;;;;;;;14.02;75.72;98974.13;5131114;27;20073;-93
2021/05/10 03:23:24;;;;;;;9.45;6.88;;;;;;;14.00;76.26;98975.13;5118113;28;20036;-95
2021/05/10 03:25:50;;;;;;;9.95;7.75;;;;;;;13.84;76.99;98975.69;5113938;28;20496;-94
2021/05/10 03:28:16;;;;;;;10.98;8.10;;;;;;;13.77;77.61;98982.19;5117456;28;20135;-92
2021/05/10 03:30:42;;;;;;;12.20;9.10;;;;;;;13.81;78.22;98996.31;5116335;28;20069;-95
2021/05/10 03:33:08;;;;;;;10.70;8.82;;;;;;;13.89;78.36;99028.97;5117104;28;20039;-94
2021/05/10 03:35:34;;;;;;;15.95;9.77;;;;;;;13.79;78.53;99008.84;5117402;28;20042;-92
2021/05/10 03:38:00;;;;;;;12.07;8.93;;;;;;;13.84;78.56;99009.56;5118564;28;20102;-93
2021/05/10 03:40:27;;;;;;;14.52;10.27;;;;;;;13.79;78.78;99009.72;5117512;28;20035;-95
2021/05/10 03:42:53;;;;;;;15.73;10.65;;;;;;;13.73;79.05;98999.28;5118093;28;20039;-94
2021/05/10 03:45:23;;;;;;;17.45;12.52;;;;;;;13.73;79.82;99018.84;5118304;28;20031;-93
2021/05/10 03:47:49;;;;;;;16.60;11.38;;;;;;;13.49;80.19;98982.31;5118959;28;20060;-93
2021/05/10 03:50:16;;;;;;;15.70;10.88;;;;;;;13.56;80.30;99002.53;5117891;28;20036;-92
2021/05/10 03:52:44;;;;;;;16.40;10.90;;;;;;;13.68;80.24;99017.25;5117531;28;20040;-93
2021/05/10 03:55:14;;;;;;;14.02;11.25;;;;;;;13.58;80.51;99011.38;5117978;28;20512;-94
2021/05/10 03:57:41;;;;;;;15.43;10.88;;;;;;;13.77;80.10;99027.63;5117622;28;20047;-94
2021/05/10 04:00:09;;;;;;;16.20;11.25;;;;;;;13.53;80.41;98991.94;5117762;28;20044;-92
2021/05/10 04:02:36;;;;;;;16.73;11.55;;;;;;;13.58;80.21;99005.16;5105514;28;20482;-94
2021/05/10 04:14:01;;;;;;;18.48;11.95;;;;;;;13.81;80.33;99034.59;5115144;27;20364;-94
2021/05/10 04:16:28;;;;;;;15.70;12.70;;;;;;;13.81;80.35;99028.38;5115283;28;20042;-92
2021/05/10 04:18:54;;;;;;;17.60;12.98;;;;;;;13.81;80.14;99015.88;5114899;28;20036;-92
2021/05/10 04:21:19;;;;;;;16.48;12.40;;;;;;;13.87;80.25;99026.34;5114966;28;20050;-94
2021/05/10 04:23:45;;;;;;;16.88;12.38;;;;;;;13.81;79.74;99010.53;5115795;28;20040;-93
2021/05/10 04:26:11;;;;;;;17.65;12.07;;;;;;;13.82;79.96;99020.31;5115432;28;20040;-93
2021/05/10 04:28:38;;;;;;;18.08;12.00;;;;;;;13.96;79.88;99039.38;5114780;28;20032;-94
2021/05/10 04:31:05;;;;;;;17.98;11.90;;;;;;;14.04;79.66;99038.25;5114269;28;20036;-94
2021/05/10 04:33:33;;;;;;;15.52;11.82;;;;;;;14.11;79.16;99027.25;5115347;28;20039;-93
2021/05/10 04:36:00;;;;;;;17.08;11.50;;;;;;;14.07;79.12;99016.72;5114947;28;20109;-92
2021/05/10 04:38:27;;;;;;;16.30;11.95;;;;;;;14.09;79.24;99017.53;5107227;28;20073;-93
2021/05/10 04:40:54;;;;;;;16.23;12.32;;;;;;;14.17;78.88;99016.31;5115446;28;20544;-92
2021/05/10 04:43:20;;;;;;;14.63;11.18;;;;;;;14.32;78.39;99028.25;5115392;28;20043;-95
2021/05/10 04:45:46;;;;;;;18.83;12.13;;;;;;;14.33;78.63;99031.78;5114146;28;20069;-92
2021/05/10 04:48:13;;;;;;;17.50;12.77;;;;;;;14.31;78.83;99025.63;5114918;28;20047;-92
2021/05/10 04:50:39;;;;;;;20.33;13.73;;;;;;;14.25;78.59;99021.41;5115284;28;20035;-91
2021/05/10 04:53:10;;;;;;;20.05;13.07;;;;;;;14.20;78.77;99020.69;5115654;28;20488;-92
2021/05/10 04:55:36;;;;;;;19.88;13.40;;;;;;;14.38;78.43;99037.84;5115294;28;20039;-92
2021/05/10 04:58:01;;;;;;;16.27;12.27;;;;;;;14.31;78.08;99026.53;5115366;28;20536;-94
2021/05/10 05:00:27;;;;;;;14.98;11.13;;;;;;;14.37;78.03;99034.28;5114900;28;20043;-94
2021/05/10 05:02:53;;;;;;;14.95;10.90;;;;;;;14.77;76.87;99039.94;5115483;28;20032;-93
2021/05/10 05:05:20;;;;;;;16.42;10.27;;;;;;;15.18;75.13;99048.97;5115039;28;20519;-94
2021/05/10 05:07:46;;;;;;;13.38;10.07;;;;;;;15.60;73.78;99052.56;5115364;28;20078;-95
2021/05/10 05:10:13;;;;;;;13.10;9.85;;;;;;;15.73;72.66;99040.41;5115124;28;20040;-94
2021/05/10 05:12:39;;;;;;;14.02;9.70;;;;;;;16.09;71.36;99045.09;5114887;28;20074;-94
2021/05/10 05:15:06;;;;;;;13.05;9.85;;;;;;;16.04;71.58;99039.03;5115653;28;20036;-95
2021/05/10 05:17:33;;;;;;;16.20;9.73;;;;;;;16.31;70.52;99039.63;5112449;28;20124;-94
2021/05/10 05:19:58;;;;;;;11.75;9.52;;;;;;;16.76;69.42;99046.44;5116006;28;20063;-93
2021/05/10 05:22:25;;;;;;;13.43;9.48;;;;;;;16.82;68.27;99026.50;5114743;28;20051;-93
2021/05/10 05:24:51;;;;;;;13.98;9.25;;;;;;;16.86;68.64;99038.84;5101127;28;20126;-91
2021/05/10 05:27:17;;;;;;;11.32;8.80;;;;;;;16.92;68.33;99046.59;5101339;28;20055;-94
2021/05/10 05:29:43;;;;;;;13.98;9.38;;;;;;;16.99;67.71;99036.44;5101860;28;20043;-94
2021/05/10 05:32:09;;;;;;;14.93;9.18;;;;;;;17.23;67.00;99015.53;5100443;28;20044;-91
2021/05/10 05:34:35;;;;;;;14.43;9.15;;;;;;;17.50;66.21;99044.63;5100991;28;20055;-94
2021/05/10 05:37:01;;;;;;;11.77;8.55;;;;;;;17.59;65.75;99036.13;5100134;28;20044;-93
2021/05/10 05:39:28;;;;;;;12.35;9.02;;;;;;;17.18;66.80;99041.78;5099693;28;20043;-94
2021/05/10 05:41:54;;;;;;;11.35;8.88;;;;;;;17.17;67.28;99043.56;5101184;28;20062;-92
2021/05/10 05:44:20;;;;;;;13.85;9.25;;;;;;;16.89;68.10;99044.03;5100353;28;20572;-94
2021/05/10 05:49:45;;;;;;;10.95;8.32;;;;;;;17.47;65.89;99042.13;5185151;27;20374;-94
2021/05/10 05:52:12;;;;;;;12.63;8.68;;;;;;;17.67;65.27;99039.25;5153111;27;20143;-93
2021/05/10 05:54:38;;;;;;;9.75;8.68;;;;;;;17.55;65.34;99034.53;5153616;27;20096;-95
2021/05/10 05:57:05;;;;;;;11.98;8.73;;;;;;;17.49;65.66;99053.66;5144408;27;20035;-93
2021/05/10 05:59:31;;;;;;;12.32;8.77;;;;;;;17.80;64.94;99045.78;5141433;27;20063;-94
2021/05/10 06:01:57;;;;;;;11.35;8.32;;;;;;;18.14;63.85;99040.44;5152486;27;20046;-93
2021/05/10 06:04:23;;;;;;;11.63;8.55;;;;;;;18.09;63.75;99047.91;5153135;27;20028;-92
2021/05/10 06:06:51;;;;;;;11.10;8.65;;;;;;;18.24;62.35;99006.69;5146718;27;20075;-91
2021/05/10 06:09:17;;;;;;;11.23;8.73;;;;;;;18.20;63.51;99000.59;5153688;27;20085;-92
2021/05/10 06:11:43;;;;;;;12.30;9.38;;;;;;;17.80;63.34;99000.03;5146568;27;20487;-93
2021/05/10 06:14:09;;;;;;;10.73;8.55;;;;;;;18.31;62.84;99009.91;5157944;27;20031;-92
2021/05/10 06:16:35;;;;;;;12.40;9.38;;;;;;;18.27;62.39;99004.69;5154678;27;20043;-93
2021/05/10 06:19:01;;;;;;;12.95;8.43;;;;;;;18.52;61.76;99008.75;5155401;27;20407;-94
2021/05/10 06:21:27;;;;;;;12.80;9.50;;;;;;;18.60;61.35;99024.44;5158444;27;20042;-94
2021/05/10 06:23:54;;;;;;;11.88;8.80;;;;;;;18.92;60.38;99019.97;5162746;27;20162;-93
2021/05/10 06:26:20;;;;;;;10.13;8.63;;;;;;;19.09;59.40;98987.53;5154369;27;20175;-94
2021/05/10 06:28:46;;;;;;;11.98;8.63;;;;;;;19.23;58.41;98993.91;5150454;27;20039;-92
2021/05/10 06:31:12;;;;;;;10.70;8.00;;;;;;;19.12;58.51;98991.84;5148348;27;20057;-91
2021/05/10 06:33:38;;;;;;;9.77;7.53;;;;;;;19.33;58.72;98991.56;5146516;27;20039;-93
2021/05/10 06:36:05;;;;;;;13.23;7.75;;;;;;;19.24;58.71;99001.06;5156863;27;20047;-93
2021/05/10 06:38:33;;;;;;;12.38;7.22;;;;;;;19.12;59.22;99031.44;5147773;27;20035;-95
2021/05/10 06:41:00;;;;;;;10.40;8.73;;;;;;;18.80;59.80;98999.09;5143702;27;20035;-93
2021/05/10 06:43:26;;;;;;;11.93;8.05;;;;;;;18.80;60.65;99005.38;5148774;27;20034;-92
2021/05/10 06:45:52;;;;;;;13.65;8.38;;;;;;;19.17;59.82;99024.81;5139674;27;20053;-94
2021/05/10 06:48:28;;;;;;;13.60;9.00;;;;;;;19.29;59.63;99026.78;5152459;27;20035;-94
2021/05/10 06:50:55;;;;;;;14.85;8.27;;;;;;;19.53;59.01;99018.19;5152420;27;20039;-93
2021/05/10 06:53:22;;;;;;;12.52;8.32;;;;;;;20.07;57.11;99039.25;5149748;27;20043;-93
2021/05/10 06:55:47;;;;;;;12.43;8.20;;;;;;;20.46;55.12;99033.19;5144642;27;20399;-92
2021/05/10 06:58:14;;;;;;;11.93;7.93;;;;;;;20.45;55.25;99003.56;5143226;27;20031;-94
2021/05/10 07:00:40;;;;;;;9.88;7.85;;;;;;;20.40;55.93;99027.31;5133578;27;20076;-94
2021/05/10 07:03:06;;;;;;;11.10;7.55;;;;;;;20.66;54.85;99013.03;5140121;27;20035;-94
2021/05/10 07:05:32;;;;;;;10.15;6.93;;;;;;;20.99;53.41;99027.16;5140193;27;20063;-94
2021/05/10 07:07:58;;;;;;;9.73;7.38;;;;;;;20.60;54.16;99026.97;5133891;27;20051;-93
2021/05/10 07:10:24;;;;;;;12.05;6.80;;;;;;;20.42;55.16;99022.69;5133649;27;20126;-93
2021/05/10 07:12:50;;;;;;;8.80;5.75;;;;;;;20.79;53.63;98993.31;5139441;27;20096;-93
2021/05/10 07:15:17;;;;;;;7.65;5.20;;;;;;;21.13;51.14;99003.63;5137760;27;20495;-93
2021/05/10 07:17:43;;;;;;;10.55;5.15;;;;;;;21.37;50.39;99002.97;5136009;27;20105;-93
2021/05/10 07:20:10;;;;;;;7.97;5.38;;;;;;;21.52;48.63;99006.50;5135497;27;20039;-94
2021/05/10 07:22:36;;;;;;;7.88;4.30;;;;;;;21.69;48.88;99008.91;5124801;27;20452;-93
2021/05/10 07:25:02;;;;;;;6.95;5.07;;;;;;;21.12;50.11;99004.63;5133753;27;20062;-95
2021/05/10 07:27:27;;;;;;;7.20;4.82;;;;;;;21.24;50.06;98984.00;5132056;27;20039;-93
2021/05/10 07:29:53;;;;;;;7.03;4.80;;;;;;;21.37;49.21;98985.88;5128413;27;20121;-94
2021/05/10 07:32:20;;;;;;;7.32;5.20;;;;;;;21.29;50.05;99008.03;5134433;27;20051;-90
2021/05/10 07:34:46;;;;;;;7.20;4.40;;;;;;;21.50;50.04;98995.78;5133675;27;20163;-93
2021/05/10 07:37:12;;;;;;;6.53;4.93;;;;;;;21.67;49.28;98991.06;5131798;27;20051;-92
2021/05/10 07:39:38;;;;;;;8.88;5.13;;;;;;;21.98;48.13;98999.75;5135592;27;20036;-93
2021/05/10 07:42:04;;;;;;;8.85;5.35;;;;;;;21.59;48.06;98972.63;5133783;27;20123;-92
2021/05/10 07:44:30;;;;;;;6.50;4.80;;;;;;;21.42;48.23;98968.38;5132815;27;20051;-92
2021/05/10 07:46:56;;;;;;;7.30;4.40;;;;;;;21.67;48.38;98974.81;5142142;27;20122;-94
2021/05/10 07:49:23;;;;;;;5.57;3.78;;;;;;;21.91;46.80;98981.22;5141953;27;20069;-92
2021/05/10 07:51:49;;;;;;;8.38;4.43;;;;;;;22.04;46.55;98964.09;5133259;27;20039;-93
2021/05/10 07:54:15;;;;;;;5.82;4.10;;;;;;;22.40;46.55;98989.53;5137121;27;20043;-93
2021/05/10 07:56:41;;;;;;;6.85;4.05;;;;;;;21.79;49.01;98963.13;5131461;27;20066;-92
2021/05/10 07:59:10;;;;;;;8.23;4.55;;;;;;;21.83;50.08;98975.47;5138573;27;20039;-94
2021/05/10 08:01:36;;;;;;;7.00;4.90;;;;;;;22.09;48.86;98964.63;5140966;27;20067;-92
2021/05/10 08:04:03;;;;;;;5.97;4.00;;;;;;;22.16;45.89;98965.91;5141017;27;20054;-94
2021/05/10 08:06:30;;;;;;;7.72;3.67;;;;;;;22.41;45.18;98975.03;5129583;27;20488;-93
2021/05/10 08:08:56;;;;;;;5.63;3.67;;;;;;;22.62;43.69;98989.75;5127322;27;20412;-93
2021/05/10 08:11:22;;;;;;;6.35;4.10;;;;;;;22.73;45.58;98984.38;5134646;27;20392;-94
2021/05/10 08:13:48;;;;;;;6.28;3.75;;;;;;;22.30;45.56;98976.66;5138017;27;20035;-92
2021/05/10 08:16:14;;;;;;;5.20;3.97;;;;;;;21.68;46.96;99001.75;5126271;27;20400;-94
2021/05/10 08:18:42;;;;;;;7.22;3.92;;;;;;;22.14;46.93;98989.53;5135761;27;20035;-92
2021/05/10 08:21:08;;;;;;;5.90;3.65;;;;;;;22.61;45.02;98988.00;5140549;27;20050;-92
2021/05/10 08:23:35;;;;;;;6.32;3.90;;;;;;;22.83;44.76;98992.69;5135256;27;20050;-92
2021/05/10 08:26:01;;;;;;;7.03;4.00;;;;;;;22.59;44.62;98976.38;5139644;27;20409;-93
2021/05/10 08:28:27;;;;;;;7.38;3.95;;;;;;;22.86;44.40;98995.19;5134519;27;20043;-92
2021/05/10 08:30:54;;;;;;;5.78;3.53;;;;;;;23.15;44.22;98987.59;5127359;27;20051;-93
2021/05/10 08:33:20;;;;;;;4.20;2.92;;;;;;;23.07;41.18;98965.63;5125765;27;20050;-92
2021/05/10 08:35:46;;;;;;;5.75;2.80;;;;;;;23.37;41.25;98967.84;5129387;27;20039;-92
2021/05/10 08:38:11;;;;;;;5.40;2.92;;;;;;;22.19;42.15;98981.97;5134537;27;20065;-93
2021/05/10 08:40:38;;;;;;;6.47;3.20;;;;;;;22.08;43.02;98988.16;5131239;27;20047;-92
2021/05/10 08:43:20;;;;;;;5.85;2.95;;;;;;;21.77;43.75;98977.72;5128977;27;20042;-94
2021/05/10 08:45:53;;;;;;;5.80;3.05;;;;;;;22.24;42.39;98966.28;5130310;27;20047;-93
2021/05/10 08:48:19;;;;;;;3.03;2.20;;;;;;;23.00;38.68;98968.88;5129393;27;20399;-91
2021/05/10 08:50:45;;;;;;;6.45;2.20;;;;;;;23.03;39.43;98950.56;5131754;27;20039;-91
2021/05/10 08:53:12;;;;;;;4.50;2.05;;;;;;;23.04;38.77;98973.13;5125633;27;20078;-92
2021/05/10 08:55:40;;;;;;;3.55;2.28;;;;;;;23.52;36.52;98956.78;5129463;27;20097;-93
2021/05/10 08:58:08;;;;;;;3.13;2.00;;;;;;;23.44;35.36;98924.81;5126976;27;20044;-93
2021/05/10 09:00:49;;;;;;;3.93;2.20;;;;;;;23.28;36.22;98959.56;5132555;27;20437;-91
2021/05/10 09:03:17;;;;;;;4.22;2.00;;;;;;;23.66;34.78;98937.59;5132146;27;20036;-95
2021/05/10 09:05:47;;;;;;;;;;;;;;;23.71;35.45;98950.81;5136931;27;20043;-94
2021/05/10 09:08:16;;;;;;;3.50;2.30;;;;;;;22.95;36.06;98942.13;5138298;27;19972;-94
2021/05/10 09:11:04;;;;;;;5.57;2.30;;;;;;;23.19;35.69;98954.84;5132340;27;20039;-94
2021/05/10 09:13:34;;;;;;;3.67;2.00;;;;;;;23.20;33.52;98945.69;5128278;27;20057;-92
2021/05/10 09:16:02;;;;;;;3.38;1.88;;;;;;;23.54;33.85;98950.25;5132777;27;20032;-92
2021/05/10 09:18:28;;;;;;;3.65;1.95;;;;;;;23.03;34.53;98938.84;5137525;27;20045;-93
2021/05/10 09:20:54;;;;;;;3.15;2.08;;;;;;;23.22;34.12;98949.16;5134933;27;20039;-93
2021/05/10 09:23:20;;;;;;;4.72;2.30;;;;;;;22.81;35.67;98963.97;5125645;27;20043;-93
2021/05/10 09:25:55;;;;;;;5.07;2.22;;;;;;;23.03;35.71;98956.00;5129011;27;20115;-92
2021/05/10 09:28:25;;;;;;;3.10;2.22;;;;;;;23.28;35.85;98949.56;5125115;27;20043;-94
2021/05/10 09:30:53;;;;;;;2.70;1.83;;;;;;;23.14;35.32;98926.22;5132392;27;20122;-94
2021/05/10 09:36:40;;;;;;;3.67;2.13;;;;;;;23.72;36.95;98947.09;5133785;27;20352;-93
2021/05/10 09:39:27;;;;;;;3.67;2.13;;;;;;;23.95;33.46;98927.16;5132159;28;20048;-92
2021/05/10 09:42:02;;;;;;;4.70;1.88;;;;;;;23.81;33.21;98916.53;5127988;28;20048;-94
2021/05/10 09:44:39;;;;;;;2.75;2.10;;;;;;;24.12;34.37;98916.81;5132485;27;20130;-93
2021/05/10 09:47:05;;;;;;;3.40;2.10;;;;;;;24.14;34.58;98914.84;5130307;28;20043;-92
2021/05/10 09:49:42;;;;;;;3.40;2.28;;;;;;;24.14;33.95;98920.25;5134463;27;20130;-94
2021/05/10 09:52:21;;;;;;;3.83;2.20;;;;;;;24.32;33.73;98904.31;5131242;28;20114;-91
2021/05/10 09:54:53;;;;;;;2.83;2.10;;;;;;;24.71;32.11;98923.81;5132772;27;20035;-92
2021/05/10 09:57:19;;;;;;;3.83;2.40;;;;;;;24.63;33.36;98909.97;5132896;27;20040;-92
2021/05/10 10:00:16;;;;;;;5.22;2.22;;;;;;;24.33;34.70;98900.59;5131287;27;20516;-94
2021/05/10 10:02:42;;;;;;;3.67;2.35;;;;;;;24.92;34.79;98921.16;5130322;28;20046;-92
2021/05/10 10:05:09;;;;;;;5.65;2.30;;;;;;;24.98;34.14;98918.78;5131648;27;20032;-90
2021/05/10 10:07:38;;;;;;;3.53;2.20;;;;;;;24.45;34.72;98917.75;5126612;27;20399;-94
2021/05/10 10:10:05;;;;;;;3.20;2.15;;;;;;;24.76;34.58;98906.09;5132213;27;20076;-94
2021/05/10 10:12:32;;;;;;;3.97;2.30;;;;;;;24.60;34.99;98900.22;5132491;28;20031;-94
2021/05/10 10:14:58;;;;;;;4.82;2.40;;;;;;;24.69;35.50;98909.47;5132971;27;20028;-92
2021/05/10 10:17:32;;;;;;;3.58;2.33;;;;;;;24.84;34.07;98880.97;5133730;27;20039;-94
2021/05/10 10:20:03;;;;;;;4.38;2.50;;;;;;;24.50;34.22;98893.81;5129404;28;20080;-95
2021/05/10 10:22:29;;;;;;;4.00;2.35;;;;;;;24.20;34.47;98889.84;5134396;27;20043;-94
2021/05/10 10:24:57;;;;;;;4.50;2.15;;;;;;;23.76;34.47;98878.00;5133822;27;20077;-92
2021/05/10 10:27:25;;;;;;;3.75;2.15;;;;;;;24.33;34.07;98889.72;5134128;27;20062;-94
2021/05/10 10:29:55;;;;;;;4.63;2.03;;;;;;;24.64;33.82;98892.69;5131658;27;20122;-96
2021/05/10 10:32:26;;;;;;;4.63;2.40;;;;;;;24.51;33.90;98880.09;5132005;27;20130;-95
2021/05/10 10:34:59;;;;;;;4.50;2.08;;;;;;;24.76;33.16;98872.59;5132191;27;20067;-91
2021/05/10 10:37:27;;;;;;;3.38;2.08;;;;;;;24.85;33.80;98865.53;5131684;28;20071;-92
2021/05/10 10:39:56;;;;;;;3.63;2.20;;;;;;;24.96;32.85;98879.06;5134504;27;20031;-95
2021/05/10 10:42:27;;;;;;;4.07;2.10;;;;;;;25.05;33.28;98888.31;5132476;27;20096;-93
2021/05/10 10:44:55;;;;;;;4.72;2.50;;;;;;;24.99;32.47;98873.38;5131705;27;20038;-94
2021/05/10 10:50:59;;;;;;;4.50;2.30;;;;;;;24.82;33.78;98893.84;5092939;27;902561;-91
2021/05/10 10:53:40;;;;;;;5.20;2.15;;;;;;;24.97;33.25;98867.22;5123534;28;20131;-91
2021/05/10 10:56:06;;;;;;;4.82;2.10;;;;;;;25.32;32.66;98877.81;5118218;28;20044;-91
2021/05/10 10:58:33;;;;;;;3.95;2.30;;;;;;;25.26;33.29;98859.28;5119619;28;20422;-93
2021/05/10 11:01:01;;;;;;;3.90;2.25;;;;;;;25.44;32.53;98866.84;5116131;28;20097;-92
2021/05/10 11:03:33;;;;;;;3.63;2.50;;;;;;;25.46;31.96;98875.75;5121843;28;20496;-94
2021/05/10 11:06:11;;;;;;;4.43;2.20;;;;;;;25.34;33.32;98880.41;5122933;28;20040;-90
2021/05/10 11:08:56;;;;;;;4.07;2.00;;;;;;;25.68;31.13;98861.16;5120244;28;20078;-91
2021/05/10 11:11:48;;;;;;;2.92;2.00;;;;;;;25.77;30.37;98863.03;5123063;28;20036;-89
2021/05/10 11:14:15;;;;;;;4.25;2.10;;;;;;;25.04;31.74;98843.91;5118346;28;20036;-93
2021/05/10 11:16:49;;;;;;;5.00;2.10;;;;;;;25.25;32.22;98838.53;5118784;28;20059;-93
2021/05/10 11:19:30;;;;;;;5.38;2.08;;;;;;;25.51;31.78;98835.38;5124363;28;20120;-91
2021/05/10 11:21:57;;;;;;;4.15;2.13;;;;;;;25.62;31.27;98827.13;5114549;28;20601;-93
2021/05/10 11:24:28;;;;;;;4.22;2.20;;;;;;;25.15;31.89;98843.00;5113243;28;20040;-93
2021/05/10 11:26:56;;;;;;;3.85;2.05;;;;;;;24.78;32.16;98860.59;5119177;28;20066;-92
2021/05/10 11:29:47;;;;;;;2.90;2.00;;;;;;;24.93;32.16;98846.69;5123236;28;20046;-92
2021/05/10 11:32:35;;;;;;;6.72;2.53;;;;;;;24.56;32.44;98822.63;5118498;28;20450;-92
2021/05/10 11:35:26;;;;;;;4.10;2.10;;;;;;;25.13;32.25;98840.41;5123795;28;20105;-93
2021/05/10 11:38:07;;;;;;;3.88;2.33;;;;;;;24.96;31.31;98814.66;5122950;28;20048;-93
2021/05/10 11:40:45;;;;;;;2.95;2.10;;;;;;;25.19;30.31;98807.25;5132030;28;20515;-94
2021/05/10 11:43:19;;;;;;;3.55;2.00;;;;;;;25.49;30.02;98821.03;5129645;28;20130;-93
2021/05/10 11:45:46;;;;;;;3.47;2.00;;;;;;;25.59;30.33;98817.38;5117260;28;20050;-94
2021/05/10 11:48:14;;;;;;;3.60;2.15;;;;;;;25.38;30.82;98806.50;5124140;28;20036;-94
2021/05/10 11:50:43;;;;;;;;;;;;;;;25.87;30.96;98820.34;5127982;28;20395;-93
2021/05/10 11:53:16;;;;;;;4.03;2.10;;;;;;;25.86;30.13;98807.75;5125216;28;19963;-93